This is the latest recevied weather packets stored in our database for station/object KQ4HEI. If no packets are shown the sender has not sent any weather packets the latest 10 day(s).
| Time | Temp. | Humidity | Pressure | Rain* | Wind** | Luminosity | Snow |
|---|---|---|---|---|---|---|---|
| 1788207691 | 34.44° C | 63% | 1015.1 hPa | 0 mm | - | - | - |
| 1788207092 | 35° C | 61% | 1015.1 hPa | 0 mm | - | - | - |
| 1788206492 | 35° C | 60% | 1015.2 hPa | 0 mm | - | - | - |
| 1788204691 | 35° C | 62% | 1015.5 hPa | 0 mm | - | - | - |
| 1788204092 | 35° C | 59% | 1015.6 hPa | 0 mm | - | - | - |
| 1788203491 | 35.56° C | 60% | 1015.7 hPa | 0 mm | - | - | - |
| 1788202292 | 34.44° C | 66% | 1016 hPa | 0 mm | - | - | - |
| 1788201091 | 34.44° C | 65% | 1016.3 hPa | 0 mm | - | - | - |
| 1788200491 | 34.44° C | 67% | 1016.4 hPa | 0 mm | - | - | - |
| 1788199892 | 33.89° C | 69% | 1016.5 hPa | 0 mm | - | - | - |
| 1788198091 | 33.89° C | 72% | 1016.6 hPa | 0 mm | - | - | - |
| 1788196892 | 32.78° C | 71% | 1017.1 hPa | 0 mm | - | - | - |
| 1788196292 | 31.67° C | 73% | 1017 hPa | 0 mm | - | - | - |
| 1788195693 | 32.78° C | 71% | 1017 hPa | 0 mm | - | - | - |
| 1788195091 | 33.33° C | 69% | 1017 hPa | 0 mm | - | - | - |
| 1788194491 | 32.22° C | 75% | 1017 hPa | 0 mm | - | - | - |
| 1788193893 | 32.78° C | 74% | 1017.1 hPa | 0 mm | - | - | - |
| 1788193291 | 31.67° C | 77% | 1017.3 hPa | 0 mm | - | - | - |
| 1788192691 | 31.67° C | 77% | 1017.4 hPa | 0 mm | - | - | - |
| 1788190292 | 31.67° C | 76% | 1017.5 hPa | 0 mm | - | - | - |
| 1788189692 | 31.11° C | 79% | 1017.6 hPa | 0 mm | - | - | - |
| 1788189091 | 31.11° C | 80% | 1017.7 hPa | 0 mm | - | - | - |
| 1788188491 | 29.44° C | 84% | 1017.7 hPa | 0 mm | - | - | - |
| 1788187892 | 30° C | 84% | 1017.6 hPa | 0 mm | - | - | - |
| 1788187293 | 31.11° C | 82% | 1017.5 hPa | 0 mm | - | - | - |
* Rain latest hour (hover to see other rain measurements)
** Current wind speed in m/s (hover to see current wind gust speed)